sensor_id;sensor_type;location;lat;lon;timestamp;temperature;humidity
25346;DHT22;13300;51.032;3.710;2023-07-29T00:02:01;18.80;99.90
25346;DHT22;13300;51.032;3.710;2023-07-29T00:04:26;18.80;99.90
25346;DHT22;13300;51.032;3.710;2023-07-29T00:06:52;18.70;99.90
25346;DHT22;13300;51.032;3.710;2023-07-29T00:09:19;18.60;99.90
25346;DHT22;13300;51.032;3.710;2023-07-29T00:11:44;18.60;99.90
25346;DHT22;13300;51.032;3.710;2023-07-29T00:14:10;18.50;99.90
25346;DHT22;13300;51.032;3.710;2023-07-29T00:16:35;18.50;99.90
25346;DHT22;13300;51.032;3.710;2023-07-29T00:19:02;18.50;99.90
25346;DHT22;13300;51.032;3.710;2023-07-29T00:21:28;18.60;99.90
25346;DHT22;13300;51.032;3.710;2023-07-29T00:23:54;18.60;99.90
25346;DHT22;13300;51.032;3.710;2023-07-29T00:26:21;18.50;99.90
25346;DHT22;13300;51.032;3.710;2023-07-29T00:28:47;18.40;99.90
25346;DHT22;13300;51.032;3.710;2023-07-29T00:31:12;18.30;99.90
25346;DHT22;13300;51.032;3.710;2023-07-29T00:33:38;18.20;99.90
25346;DHT22;13300;51.032;3.710;2023-07-29T00:36:04;18.20;99.90
25346;DHT22;13300;51.032;3.710;2023-07-29T00:38:30;18.20;99.90
25346;DHT22;13300;51.032;3.710;2023-07-29T00:41:00;18.30;99.90
25346;DHT22;13300;51.032;3.710;2023-07-29T00:43:25;18.30;99.90
25346;DHT22;13300;51.032;3.710;2023-07-29T00:45:51;18.30;99.90
25346;DHT22;13300;51.032;3.710;2023-07-29T00:48:17;18.30;99.90
25346;DHT22;13300;51.032;3.710;2023-07-29T00:50:44;18.20;99.90
25346;DHT22;13300;51.032;3.710;2023-07-29T00:53:10;18.20;99.90
25346;DHT22;13300;51.032;3.710;2023-07-29T00:55:35;18.20;99.90
25346;DHT22;13300;51.032;3.710;2023-07-29T00:58:02;18.10;99.90
25346;DHT22;13300;51.032;3.710;2023-07-29T01:00:28;18.00;99.90
25346;DHT22;13300;51.032;3.710;2023-07-29T01:02:54;18.20;99.90
25346;DHT22;13300;51.032;3.710;2023-07-29T01:05:20;18.20;99.90
25346;DHT22;13300;51.032;3.710;2023-07-29T01:10:43;18.00;99.90
25346;DHT22;13300;51.032;3.710;2023-07-29T01:18:18;18.20;99.90
25346;DHT22;13300;51.032;3.710;2023-07-29T01:20:45;18.10;99.90
25346;DHT22;13300;51.032;3.710;2023-07-29T01:23:12;18.30;99.90
25346;DHT22;13300;51.032;3.710;2023-07-29T01:25:38;18.30;99.90
25346;DHT22;13300;51.032;3.710;2023-07-29T01:28:04;18.10;99.90
25346;DHT22;13300;51.032;3.710;2023-07-29T01:30:38;18.10;99.90
25346;DHT22;13300;51.032;3.710;2023-07-29T01:33:14;18.10;99.90
25346;DHT22;13300;51.032;3.710;2023-07-29T01:36:11;18.20;99.90
25346;DHT22;13300;51.032;3.710;2023-07-29T01:38:41;18.30;99.90
25346;DHT22;13300;51.032;3.710;2023-07-29T01:41:08;18.20;99.90
25346;DHT22;13300;51.032;3.710;2023-07-29T01:43:34;18.20;99.90
25346;DHT22;13300;51.032;3.710;2023-07-29T01:46:04;18.20;99.90
25346;DHT22;13300;51.032;3.710;2023-07-29T01:48:30;18.00;99.90
25346;DHT22;13300;51.032;3.710;2023-07-29T01:50:57;18.00;99.90
25346;DHT22;13300;51.032;3.710;2023-07-29T01:53:23;17.80;99.90
25346;DHT22;13300;51.032;3.710;2023-07-29T01:55:49;17.70;99.90
25346;DHT22;13300;51.032;3.710;2023-07-29T01:58:15;17.80;99.90
25346;DHT22;13300;51.032;3.710;2023-07-29T02:00:40;17.80;99.90
25346;DHT22;13300;51.032;3.710;2023-07-29T02:03:06;17.80;99.90
25346;DHT22;13300;51.032;3.710;2023-07-29T02:05:32;17.80;99.90
25346;DHT22;13300;51.032;3.710;2023-07-29T02:07:57;17.80;99.90
25346;DHT22;13300;51.032;3.710;2023-07-29T02:10:23;17.70;99.90
25346;DHT22;13300;51.032;3.710;2023-07-29T02:12:49;17.50;99.90
25346;DHT22;13300;51.032;3.710;2023-07-29T02:15:14;17.60;99.90
25346;DHT22;13300;51.032;3.710;2023-07-29T02:17:41;17.60;99.90
25346;DHT22;13300;51.032;3.710;2023-07-29T02:20:08;17.60;99.90
25346;DHT22;13300;51.032;3.710;2023-07-29T02:22:34;17.60;99.90
25346;DHT22;13300;51.032;3.710;2023-07-29T02:24:59;17.70;99.90
25346;DHT22;13300;51.032;3.710;2023-07-29T02:27:26;17.60;99.90
25346;DHT22;13300;51.032;3.710;2023-07-29T02:29:53;17.70;99.90
25346;DHT22;13300;51.032;3.710;2023-07-29T02:32:19;17.70;99.90
25346;DHT22;13300;51.032;3.710;2023-07-29T02:34:45;17.50;99.90
25346;DHT22;13300;51.032;3.710;2023-07-29T02:37:11;17.50;99.90
25346;DHT22;13300;51.032;3.710;2023-07-29T02:39:37;17.50;99.90
25346;DHT22;13300;51.032;3.710;2023-07-29T02:42:03;17.50;99.90
25346;DHT22;13300;51.032;3.710;2023-07-29T02:44:28;17.60;99.90
25346;DHT22;13300;51.032;3.710;2023-07-29T02:46:54;17.70;99.90
25346;DHT22;13300;51.032;3.710;2023-07-29T02:49:22;17.70;99.90
25346;DHT22;13300;51.032;3.710;2023-07-29T02:51:48;17.50;99.90
25346;DHT22;13300;51.032;3.710;2023-07-29T02:54:14;17.50;99.90
25346;DHT22;13300;51.032;3.710;2023-07-29T02:56:39;17.60;99.90
25346;DHT22;13300;51.032;3.710;2023-07-29T02:59:05;17.60;99.90
25346;DHT22;13300;51.032;3.710;2023-07-29T03:01:31;17.50;99.90
25346;DHT22;13300;51.032;3.710;2023-07-29T03:03:56;17.60;99.90
25346;DHT22;13300;51.032;3.710;2023-07-29T03:06:22;17.60;99.90
25346;DHT22;13300;51.032;3.710;2023-07-29T03:08:48;17.60;99.90
25346;DHT22;13300;51.032;3.710;2023-07-29T03:11:15;17.60;99.90
25346;DHT22;13300;51.032;3.710;2023-07-29T03:13:42;17.60;99.90
25346;DHT22;13300;51.032;3.710;2023-07-29T03:18:34;17.70;99.90
25346;DHT22;13300;51.032;3.710;2023-07-29T03:21:00;17.70;99.90
25346;DHT22;13300;51.032;3.710;2023-07-29T03:23:27;17.70;99.90
25346;DHT22;13300;51.032;3.710;2023-07-29T03:25:55;17.40;99.90
25346;DHT22;13300;51.032;3.710;2023-07-29T03:28:26;17.40;99.90
25346;DHT22;13300;51.032;3.710;2023-07-29T03:30:53;17.40;99.90
25346;DHT22;13300;51.032;3.710;2023-07-29T03:33:19;17.50;99.90
25346;DHT22;13300;51.032;3.710;2023-07-29T03:35:44;17.60;99.90
25346;DHT22;13300;51.032;3.710;2023-07-29T03:38:11;17.60;99.90
25346;DHT22;13300;51.032;3.710;2023-07-29T03:40:40;17.50;99.90
25346;DHT22;13300;51.032;3.710;2023-07-29T03:43:06;17.40;99.90
25346;DHT22;13300;51.032;3.710;2023-07-29T03:45:32;17.40;99.90
25346;DHT22;13300;51.032;3.710;2023-07-29T03:47:58;17.30;99.90
25346;DHT22;13300;51.032;3.710;2023-07-29T03:50:24;17.30;99.90
25346;DHT22;13300;51.032;3.710;2023-07-29T03:52:50;17.30;99.90
25346;DHT22;13300;51.032;3.710;2023-07-29T03:55:16;17.30;99.90
25346;DHT22;13300;51.032;3.710;2023-07-29T03:57:41;17.30;99.90
25346;DHT22;13300;51.032;3.710;2023-07-29T04:00:07;17.30;99.90
25346;DHT22;13300;51.032;3.710;2023-07-29T04:02:34;17.30;99.90
25346;DHT22;13300;51.032;3.710;2023-07-29T04:05:03;17.20;99.90
25346;DHT22;13300;51.032;3.710;2023-07-29T04:07:30;17.30;99.90
25346;DHT22;13300;51.032;3.710;2023-07-29T04:09:56;17.20;99.90
25346;DHT22;13300;51.032;3.710;2023-07-29T04:12:22;17.20;99.90
25346;DHT22;13300;51.032;3.710;2023-07-29T04:14:48;17.20;99.90
25346;DHT22;13300;51.032;3.710;2023-07-29T04:17:14;17.30;99.90
25346;DHT22;13300;51.032;3.710;2023-07-29T04:19:40;17.20;99.90
25346;DHT22;13300;51.032;3.710;2023-07-29T04:22:06;17.10;99.90
25346;DHT22;13300;51.032;3.710;2023-07-29T04:24:31;17.10;99.90
25346;DHT22;13300;51.032;3.710;2023-07-29T04:26:57;17.10;99.90
25346;DHT22;13300;51.032;3.710;2023-07-29T04:29:22;17.10;99.90
25346;DHT22;13300;51.032;3.710;2023-07-29T04:31:51;17.00;99.90
25346;DHT22;13300;51.032;3.710;2023-07-29T04:34:18;17.20;99.90
25346;DHT22;13300;51.032;3.710;2023-07-29T04:36:45;17.10;99.90
25346;DHT22;13300;51.032;3.710;2023-07-29T04:39:11;17.10;99.90
25346;DHT22;13300;51.032;3.710;2023-07-29T04:41:36;17.10;99.90
25346;DHT22;13300;51.032;3.710;2023-07-29T04:44:02;17.10;99.90
25346;DHT22;13300;51.032;3.710;2023-07-29T04:46:28;17.10;99.90
25346;DHT22;13300;51.032;3.710;2023-07-29T04:48:54;17.00;99.90
25346;DHT22;13300;51.032;3.710;2023-07-29T04:51:19;17.00;99.90
25346;DHT22;13300;51.032;3.710;2023-07-29T04:53:45;16.90;99.90
25346;DHT22;13300;51.032;3.710;2023-07-29T04:56:11;17.00;99.90
25346;DHT22;13300;51.032;3.710;2023-07-29T04:58:37;17.00;99.90
25346;DHT22;13300;51.032;3.710;2023-07-29T05:01:03;17.00;99.90
25346;DHT22;13300;51.032;3.710;2023-07-29T05:03:29;17.10;99.90
25346;DHT22;13300;51.032;3.710;2023-07-29T05:05:55;16.90;99.90
25346;DHT22;13300;51.032;3.710;2023-07-29T05:08:22;17.00;99.90
25346;DHT22;13300;51.032;3.710;2023-07-29T05:10:51;17.10;99.90
25346;DHT22;13300;51.032;3.710;2023-07-29T05:13:18;17.10;99.90
25346;DHT22;13300;51.032;3.710;2023-07-29T05:15:43;17.10;99.90
25346;DHT22;13300;51.032;3.710;2023-07-29T05:18:09;17.20;99.90
25346;DHT22;13300;51.032;3.710;2023-07-29T05:20:35;17.20;99.90
25346;DHT22;13300;51.032;3.710;2023-07-29T05:23:00;17.30;99.90
25346;DHT22;13300;51.032;3.710;2023-07-29T05:25:26;17.40;99.90
25346;DHT22;13300;51.032;3.710;2023-07-29T05:27:52;17.70;99.90
25346;DHT22;13300;51.032;3.710;2023-07-29T05:30:18;17.90;99.90
25346;DHT22;13300;51.032;3.710;2023-07-29T05:32:43;18.10;99.90
25346;DHT22;13300;51.032;3.710;2023-07-29T05:35:10;18.20;99.90
25346;DHT22;13300;51.032;3.710;2023-07-29T05:37:39;18.50;99.90
25346;DHT22;13300;51.032;3.710;2023-07-29T05:40:06;18.50;99.90
25346;DHT22;13300;51.032;3.710;2023-07-29T05:42:33;18.50;99.90
25346;DHT22;13300;51.032;3.710;2023-07-29T05:44:58;18.70;99.90
25346;DHT22;13300;51.032;3.710;2023-07-29T05:47:24;18.80;99.90
25346;DHT22;13300;51.032;3.710;2023-07-29T05:49:50;19.00;99.90
25346;DHT22;13300;51.032;3.710;2023-07-29T05:52:16;19.00;99.90
25346;DHT22;13300;51.032;3.710;2023-07-29T05:54:41;19.10;99.90
25346;DHT22;13300;51.032;3.710;2023-07-29T05:57:09;19.00;99.90
25346;DHT22;13300;51.032;3.710;2023-07-29T05:59:35;18.90;99.90
25346;DHT22;13300;51.032;3.710;2023-07-29T06:02:01;18.90;99.90
25346;DHT22;13300;51.032;3.710;2023-07-29T06:04:26;18.90;99.90
25346;DHT22;13300;51.032;3.710;2023-07-29T06:06:52;18.90;99.90
25346;DHT22;13300;51.032;3.710;2023-07-29T06:09:18;19.10;99.90
25346;DHT22;13300;51.032;3.710;2023-07-29T06:11:44;19.20;99.90
25346;DHT22;13300;51.032;3.710;2023-07-29T06:14:09;19.50;99.90
25346;DHT22;13300;51.032;3.710;2023-07-29T06:16:35;19.70;99.90
25346;DHT22;13300;51.032;3.710;2023-07-29T06:19:01;20.00;99.90
25346;DHT22;13300;51.032;3.710;2023-07-29T06:21:26;20.10;99.90
25346;DHT22;13300;51.032;3.710;2023-07-29T06:23:52;20.00;99.90
25346;DHT22;13300;51.032;3.710;2023-07-29T06:26:18;20.10;99.90
25346;DHT22;13300;51.032;3.710;2023-07-29T06:28:44;20.10;99.90
25346;DHT22;13300;51.032;3.710;2023-07-29T06:31:09;20.00;99.90
25346;DHT22;13300;51.032;3.710;2023-07-29T06:33:35;19.90;99.90
25346;DHT22;13300;51.032;3.710;2023-07-29T06:36:01;19.80;99.90
25346;DHT22;13300;51.032;3.710;2023-07-29T06:38:27;19.80;99.90
25346;DHT22;13300;51.032;3.710;2023-07-29T06:40:52;19.70;99.90
25346;DHT22;13300;51.032;3.710;2023-07-29T06:43:18;19.70;99.90
25346;DHT22;13300;51.032;3.710;2023-07-29T06:45:44;19.50;99.90
25346;DHT22;13300;51.032;3.710;2023-07-29T06:48:12;19.60;99.90
25346;DHT22;13300;51.032;3.710;2023-07-29T06:50:38;19.80;99.90
25346;DHT22;13300;51.032;3.710;2023-07-29T06:53:04;20.10;99.90
25346;DHT22;13300;51.032;3.710;2023-07-29T06:55:29;20.40;99.90
25346;DHT22;13300;51.032;3.710;2023-07-29T06:57:55;20.30;99.90
25346;DHT22;13300;51.032;3.710;2023-07-29T07:00:21;20.20;99.90
25346;DHT22;13300;51.032;3.710;2023-07-29T07:02:46;20.40;99.90
25346;DHT22;13300;51.032;3.710;2023-07-29T07:05:12;20.60;99.90
25346;DHT22;13300;51.032;3.710;2023-07-29T07:07:38;20.40;99.90
25346;DHT22;13300;51.032;3.710;2023-07-29T07:10:04;20.50;99.90
25346;DHT22;13300;51.032;3.710;2023-07-29T07:12:29;20.70;99.90
25346;DHT22;13300;51.032;3.710;2023-07-29T07:14:55;20.60;99.90
25346;DHT22;13300;51.032;3.710;2023-07-29T07:17:21;20.90;99.90
25346;DHT22;13300;51.032;3.710;2023-07-29T07:19:46;21.10;99.90
25346;DHT22;13300;51.032;3.710;2023-07-29T07:22:12;21.40;99.90
25346;DHT22;13300;51.032;3.710;2023-07-29T07:24:47;21.70;99.90
25346;DHT22;13300;51.032;3.710;2023-07-29T07:27:13;21.80;99.90
25346;DHT22;13300;51.032;3.710;2023-07-29T07:29:38;21.90;99.90
25346;DHT22;13300;51.032;3.710;2023-07-29T07:32:04;22.20;99.90
25346;DHT22;13300;51.032;3.710;2023-07-29T07:34:30;22.40;99.90
25346;DHT22;13300;51.032;3.710;2023-07-29T07:36:55;22.80;99.90
25346;DHT22;13300;51.032;3.710;2023-07-29T07:39:21;23.30;99.90
25346;DHT22;13300;51.032;3.710;2023-07-29T07:41:47;23.50;99.90
25346;DHT22;13300;51.032;3.710;2023-07-29T07:44:13;24.40;99.90
25346;DHT22;13300;51.032;3.710;2023-07-29T07:46:41;25.10;99.90
25346;DHT22;13300;51.032;3.710;2023-07-29T07:49:07;25.90;99.90
25346;DHT22;13300;51.032;3.710;2023-07-29T07:51:32;26.70;99.90
25346;DHT22;13300;51.032;3.710;2023-07-29T07:53:58;27.20;99.90
25346;DHT22;13300;51.032;3.710;2023-07-29T07:56:24;27.60;99.90
25346;DHT22;13300;51.032;3.710;2023-07-29T07:58:49;28.30;99.90
25346;DHT22;13300;51.032;3.710;2023-07-29T08:01:15;28.20;99.90
25346;DHT22;13300;51.032;3.710;2023-07-29T08:03:41;27.60;99.90
25346;DHT22;13300;51.032;3.710;2023-07-29T08:06:06;27.20;99.90
25346;DHT22;13300;51.032;3.710;2023-07-29T08:08:32;27.10;99.90
25346;DHT22;13300;51.032;3.710;2023-07-29T08:10:58;26.80;99.90
25346;DHT22;13300;51.032;3.710;2023-07-29T08:13:24;26.40;99.90
25346;DHT22;13300;51.032;3.710;2023-07-29T08:15:51;26.20;99.90
25346;DHT22;13300;51.032;3.710;2023-07-29T08:18:17;27.40;99.90
25346;DHT22;13300;51.032;3.710;2023-07-29T08:20:57;27.00;99.90
25346;DHT22;13300;51.032;3.710;2023-07-29T08:23:26;26.70;99.90
25346;DHT22;13300;51.032;3.710;2023-07-29T08:25:53;25.90;99.90
25346;DHT22;13300;51.032;3.710;2023-07-29T08:28:22;25.70;99.90
25346;DHT22;13300;51.032;3.710;2023-07-29T08:30:47;26.50;99.90
25346;DHT22;13300;51.032;3.710;2023-07-29T08:33:13;27.60;99.90
25346;DHT22;13300;51.032;3.710;2023-07-29T08:35:39;27.40;99.90
25346;DHT22;13300;51.032;3.710;2023-07-29T08:38:04;27.00;99.90
25346;DHT22;13300;51.032;3.710;2023-07-29T08:40:32;27.20;99.90
25346;DHT22;13300;51.032;3.710;2023-07-29T08:43:05;27.80;99.90
25346;DHT22;13300;51.032;3.710;2023-07-29T08:45:35;28.00;99.90
25346;DHT22;13300;51.032;3.710;2023-07-29T08:48:02;28.30;99.90
25346;DHT22;13300;51.032;3.710;2023-07-29T08:50:32;27.40;99.90
25346;DHT22;13300;51.032;3.710;2023-07-29T08:52:59;26.40;99.90
25346;DHT22;13300;51.032;3.710;2023-07-29T08:55:25;25.70;99.90
25346;DHT22;13300;51.032;3.710;2023-07-29T08:57:51;24.50;99.90
25346;DHT22;13300;51.032;3.710;2023-07-29T09:00:17;24.00;99.90
25346;DHT22;13300;51.032;3.710;2023-07-29T09:02:44;23.50;99.90
25346;DHT22;13300;51.032;3.710;2023-07-29T09:05:11;23.30;99.90
25346;DHT22;13300;51.032;3.710;2023-07-29T09:07:37;23.20;99.90
25346;DHT22;13300;51.032;3.710;2023-07-29T09:10:04;23.20;99.90
25346;DHT22;13300;51.032;3.710;2023-07-29T09:12:29;22.70;99.90
25346;DHT22;13300;51.032;3.710;2023-07-29T09:14:55;22.40;99.90
25346;DHT22;13300;51.032;3.710;2023-07-29T09:17:21;22.40;99.90
25346;DHT22;13300;51.032;3.710;2023-07-29T09:19:48;22.50;99.90
25346;DHT22;13300;51.032;3.710;2023-07-29T09:22:21;22.40;99.90
25346;DHT22;13300;51.032;3.710;2023-07-29T09:24:47;22.40;99.90
25346;DHT22;13300;51.032;3.710;2023-07-29T09:27:27;22.60;99.90
25346;DHT22;13300;51.032;3.710;2023-07-29T09:29:53;23.10;99.90
25346;DHT22;13300;51.032;3.710;2023-07-29T09:32:23;23.40;99.90
25346;DHT22;13300;51.032;3.710;2023-07-29T09:34:49;23.70;99.90
25346;DHT22;13300;51.032;3.710;2023-07-29T09:37:22;23.60;99.90
25346;DHT22;13300;51.032;3.710;2023-07-29T09:39:50;23.60;99.90
25346;DHT22;13300;51.032;3.710;2023-07-29T09:42:20;23.40;99.90
25346;DHT22;13300;51.032;3.710;2023-07-29T09:44:47;23.40;99.90
25346;DHT22;13300;51.032;3.710;2023-07-29T09:47:25;23.20;99.90
25346;DHT22;13300;51.032;3.710;2023-07-29T09:49:51;22.30;99.90
25346;DHT22;13300;51.032;3.710;2023-07-29T09:52:21;21.90;99.90
25346;DHT22;13300;51.032;3.710;2023-07-29T09:54:56;21.60;99.90
25346;DHT22;13300;51.032;3.710;2023-07-29T09:57:22;21.50;99.90
25346;DHT22;13300;51.032;3.710;2023-07-29T09:59:55;21.40;99.90
25346;DHT22;13300;51.032;3.710;2023-07-29T10:02:20;21.40;99.90
25346;DHT22;13300;51.032;3.710;2023-07-29T10:04:47;21.60;99.90
25346;DHT22;13300;51.032;3.710;2023-07-29T10:07:13;21.90;99.90
25346;DHT22;13300;51.032;3.710;2023-07-29T10:09:40;22.30;99.90
25346;DHT22;13300;51.032;3.710;2023-07-29T10:12:09;22.50;99.90
25346;DHT22;13300;51.032;3.710;2023-07-29T10:14:38;22.40;99.90
25346;DHT22;13300;51.032;3.710;2023-07-29T10:17:05;22.20;99.90
25346;DHT22;13300;51.032;3.710;2023-07-29T10:19:31;22.30;99.90
25346;DHT22;13300;51.032;3.710;2023-07-29T10:21:59;22.50;99.90
25346;DHT22;13300;51.032;3.710;2023-07-29T10:24:30;22.70;99.90
25346;DHT22;13300;51.032;3.710;2023-07-29T10:26:59;22.60;99.90
25346;DHT22;13300;51.032;3.710;2023-07-29T10:29:29;22.60;99.90
25346;DHT22;13300;51.032;3.710;2023-07-29T10:31:57;22.10;99.90
25346;DHT22;13300;51.032;3.710;2023-07-29T10:34:24;21.50;99.90
25346;DHT22;13300;51.032;3.710;2023-07-29T10:36:50;21.10;99.90
25346;DHT22;13300;51.032;3.710;2023-07-29T10:39:17;20.80;99.90
25346;DHT22;13300;51.032;3.710;2023-07-29T10:41:58;20.60;99.90
25346;DHT22;13300;51.032;3.710;2023-07-29T10:44:50;20.40;99.90
25346;DHT22;13300;51.032;3.710;2023-07-29T10:47:25;20.20;99.90
25346;DHT22;13300;51.032;3.710;2023-07-29T10:49:53;20.10;99.90
25346;DHT22;13300;51.032;3.710;2023-07-29T10:54:56;20.20;99.90
25346;DHT22;13300;51.032;3.710;2023-07-29T10:57:33;20.10;99.90
25346;DHT22;13300;51.032;3.710;2023-07-29T10:59:59;20.00;99.90
25346;DHT22;13300;51.032;3.710;2023-07-29T11:02:35;19.90;99.90
25346;DHT22;13300;51.032;3.710;2023-07-29T11:05:06;19.90;99.90
25346;DHT22;13300;51.032;3.710;2023-07-29T11:07:46;20.30;99.90
25346;DHT22;13300;51.032;3.710;2023-07-29T11:10:13;21.00;99.90
25346;DHT22;13300;51.032;3.710;2023-07-29T11:12:44;21.70;99.90
25346;DHT22;13300;51.032;3.710;2023-07-29T11:15:13;22.10;99.90
25346;DHT22;13300;51.032;3.710;2023-07-29T11:17:44;22.60;99.90
25346;DHT22;13300;51.032;3.710;2023-07-29T11:20:11;23.00;99.90
25346;DHT22;13300;51.032;3.710;2023-07-29T11:22:38;22.80;99.90
25346;DHT22;13300;51.032;3.710;2023-07-29T11:25:05;22.90;99.90
25346;DHT22;13300;51.032;3.710;2023-07-29T11:27:32;23.00;99.90
25346;DHT22;13300;51.032;3.710;2023-07-29T11:29:59;23.40;99.90
25346;DHT22;13300;51.032;3.710;2023-07-29T11:32:25;23.70;99.90
25346;DHT22;13300;51.032;3.710;2023-07-29T11:34:51;24.40;99.90
25346;DHT22;13300;51.032;3.710;2023-07-29T11:37:17;24.40;99.90
25346;DHT22;13300;51.032;3.710;2023-07-29T11:39:45;24.60;99.90
25346;DHT22;13300;51.032;3.710;2023-07-29T11:42:12;24.70;99.90
25346;DHT22;13300;51.032;3.710;2023-07-29T11:44:41;25.20;99.90
25346;DHT22;13300;51.032;3.710;2023-07-29T11:47:08;26.50;99.90
25346;DHT22;13300;51.032;3.710;2023-07-29T11:49:35;28.00;99.90
25346;DHT22;13300;51.032;3.710;2023-07-29T11:52:02;29.40;99.90
25346;DHT22;13300;51.032;3.710;2023-07-29T11:54:28;30.20;99.90
25346;DHT22;13300;51.032;3.710;2023-07-29T11:56:55;30.60;99.90
25346;DHT22;13300;51.032;3.710;2023-07-29T11:59:21;31.10;99.90
25346;DHT22;13300;51.032;3.710;2023-07-29T12:01:47;31.40;99.90
25346;DHT22;13300;51.032;3.710;2023-07-29T12:04:13;31.70;99.90
25346;DHT22;13300;51.032;3.710;2023-07-29T12:06:40;32.20;99.90
25346;DHT22;13300;51.032;3.710;2023-07-29T12:09:06;32.20;99.90
25346;DHT22;13300;51.032;3.710;2023-07-29T12:11:33;32.20;99.90
25346;DHT22;13300;51.032;3.710;2023-07-29T12:14:00;32.50;99.90
25346;DHT22;13300;51.032;3.710;2023-07-29T12:16:26;31.70;99.90
25346;DHT22;13300;51.032;3.710;2023-07-29T12:18:51;31.00;99.90
25346;DHT22;13300;51.032;3.710;2023-07-29T12:21:19;30.40;99.90
25346;DHT22;13300;51.032;3.710;2023-07-29T12:23:44;30.00;99.90
25346;DHT22;13300;51.032;3.710;2023-07-29T12:26:10;29.30;99.90
25346;DHT22;13300;51.032;3.710;2023-07-29T12:28:36;29.40;99.90
25346;DHT22;13300;51.032;3.710;2023-07-29T12:31:01;29.20;99.90
25346;DHT22;13300;51.032;3.710;2023-07-29T12:33:34;29.00;99.90
25346;DHT22;13300;51.032;3.710;2023-07-29T12:36:01;29.50;99.90
25346;DHT22;13300;51.032;3.710;2023-07-29T12:38:27;30.00;99.90
25346;DHT22;13300;51.032;3.710;2023-07-29T12:40:53;29.00;99.90
25346;DHT22;13300;51.032;3.710;2023-07-29T12:43:19;28.10;99.90
25346;DHT22;13300;51.032;3.710;2023-07-29T12:45:45;28.30;99.90
25346;DHT22;13300;51.032;3.710;2023-07-29T12:48:11;28.70;99.90
25346;DHT22;13300;51.032;3.710;2023-07-29T12:50:37;29.20;99.90
25346;DHT22;13300;51.032;3.710;2023-07-29T12:53:04;29.30;99.90
25346;DHT22;13300;51.032;3.710;2023-07-29T12:55:30;29.20;99.90
25346;DHT22;13300;51.032;3.710;2023-07-29T12:57:56;29.00;99.90
25346;DHT22;13300;51.032;3.710;2023-07-29T13:00:23;28.60;99.90
25346;DHT22;13300;51.032;3.710;2023-07-29T13:02:49;28.10;99.90
25346;DHT22;13300;51.032;3.710;2023-07-29T13:05:15;27.70;99.90
25346;DHT22;13300;51.032;3.710;2023-07-29T13:07:41;27.20;99.90
25346;DHT22;13300;51.032;3.710;2023-07-29T13:10:08;27.30;99.90
25346;DHT22;13300;51.032;3.710;2023-07-29T13:12:34;27.30;99.90
25346;DHT22;13300;51.032;3.710;2023-07-29T13:15:00;27.20;99.90
25346;DHT22;13300;51.032;3.710;2023-07-29T13:17:26;26.80;99.90
25346;DHT22;13300;51.032;3.710;2023-07-29T13:19:51;25.70;99.90
25346;DHT22;13300;51.032;3.710;2023-07-29T13:22:19;24.90;99.90
25346;DHT22;13300;51.032;3.710;2023-07-29T13:24:46;24.50;99.90
25346;DHT22;13300;51.032;3.710;2023-07-29T13:27:12;24.30;99.90
25346;DHT22;13300;51.032;3.710;2023-07-29T13:29:39;24.10;99.90
25346;DHT22;13300;51.032;3.710;2023-07-29T13:32:05;23.80;99.90
25346;DHT22;13300;51.032;3.710;2023-07-29T13:34:31;23.40;99.90
25346;DHT22;13300;51.032;3.710;2023-07-29T13:36:57;22.90;99.90
25346;DHT22;13300;51.032;3.710;2023-07-29T13:39:23;22.20;99.90
25346;DHT22;13300;51.032;3.710;2023-07-29T13:41:49;21.80;99.90
25346;DHT22;13300;51.032;3.710;2023-07-29T13:44:14;21.80;99.90
25346;DHT22;13300;51.032;3.710;2023-07-29T13:46:40;21.70;99.90
25346;DHT22;13300;51.032;3.710;2023-07-29T13:49:06;21.60;99.90
25346;DHT22;13300;51.032;3.710;2023-07-29T13:51:31;21.40;99.90
25346;DHT22;13300;51.032;3.710;2023-07-29T13:53:57;21.40;99.90
25346;DHT22;13300;51.032;3.710;2023-07-29T13:56:23;21.40;99.90
25346;DHT22;13300;51.032;3.710;2023-07-29T13:58:49;21.60;99.90
25346;DHT22;13300;51.032;3.710;2023-07-29T14:01:14;22.50;99.90
25346;DHT22;13300;51.032;3.710;2023-07-29T14:03:40;23.60;99.90
25346;DHT22;13300;51.032;3.710;2023-07-29T14:06:06;24.80;99.90
25346;DHT22;13300;51.032;3.710;2023-07-29T14:08:32;25.90;99.90
25346;DHT22;13300;51.032;3.710;2023-07-29T14:10:57;26.80;99.90
25346;DHT22;13300;51.032;3.710;2023-07-29T14:13:23;27.10;99.90
25346;DHT22;13300;51.032;3.710;2023-07-29T14:15:49;27.10;99.90
25346;DHT22;13300;51.032;3.710;2023-07-29T14:18:14;27.60;99.90
25346;DHT22;13300;51.032;3.710;2023-07-29T14:20:40;28.10;99.90
25346;DHT22;13300;51.032;3.710;2023-07-29T14:23:06;27.90;99.90
25346;DHT22;13300;51.032;3.710;2023-07-29T14:25:32;27.70;99.90
25346;DHT22;13300;51.032;3.710;2023-07-29T14:27:57;26.80;99.90
25346;DHT22;13300;51.032;3.710;2023-07-29T14:30:23;26.10;99.90
25346;DHT22;13300;51.032;3.710;2023-07-29T14:32:49;25.40;99.90
25346;DHT22;13300;51.032;3.710;2023-07-29T14:35:15;25.10;99.90
25346;DHT22;13300;51.032;3.710;2023-07-29T14:37:40;24.90;99.90
25346;DHT22;13300;51.032;3.710;2023-07-29T14:40:06;24.60;99.90
25346;DHT22;13300;51.032;3.710;2023-07-29T14:42:32;24.30;99.90
25346;DHT22;13300;51.032;3.710;2023-07-29T14:44:58;24.00;99.90
25346;DHT22;13300;51.032;3.710;2023-07-29T14:47:24;24.00;99.90
25346;DHT22;13300;51.032;3.710;2023-07-29T14:49:49;24.30;99.90
25346;DHT22;13300;51.032;3.710;2023-07-29T14:52:15;25.00;99.90
25346;DHT22;13300;51.032;3.710;2023-07-29T14:54:41;25.60;99.90
25346;DHT22;13300;51.032;3.710;2023-07-29T14:57:07;26.30;99.90
25346;DHT22;13300;51.032;3.710;2023-07-29T14:59:33;27.10;99.90
25346;DHT22;13300;51.032;3.710;2023-07-29T15:01:58;27.30;99.90
25346;DHT22;13300;51.032;3.710;2023-07-29T15:04:24;27.60;99.90
25346;DHT22;13300;51.032;3.710;2023-07-29T15:06:50;27.90;99.90
25346;DHT22;13300;51.032;3.710;2023-07-29T15:09:18;28.10;99.90
25346;DHT22;13300;51.032;3.710;2023-07-29T15:11:43;28.30;99.90
25346;DHT22;13300;51.032;3.710;2023-07-29T15:14:09;29.10;99.90
25346;DHT22;13300;51.032;3.710;2023-07-29T15:16:35;28.80;99.90
25346;DHT22;13300;51.032;3.710;2023-07-29T15:19:02;28.10;99.90
25346;DHT22;13300;51.032;3.710;2023-07-29T15:21:28;28.00;99.90
25346;DHT22;13300;51.032;3.710;2023-07-29T15:23:54;27.00;99.90
25346;DHT22;13300;51.032;3.710;2023-07-29T15:26:19;26.40;99.90
25346;DHT22;13300;51.032;3.710;2023-07-29T15:28:45;26.10;99.90
25346;DHT22;13300;51.032;3.710;2023-07-29T15:31:13;26.40;99.90
25346;DHT22;13300;51.032;3.710;2023-07-29T15:33:38;26.40;99.90
25346;DHT22;13300;51.032;3.710;2023-07-29T15:36:04;26.20;99.90
25346;DHT22;13300;51.032;3.710;2023-07-29T15:38:30;26.00;99.90
25346;DHT22;13300;51.032;3.710;2023-07-29T15:40:56;25.50;99.90